sensor_id;sensor_type;location;lat;lon;timestamp;P1;durP1;ratioP1;P2;durP2;ratioP2
52888;SDS011;41413;52.770;6.892;2022-12-29T00:01:41;4.18;;;3.88;;
52888;SDS011;41413;52.770;6.892;2022-12-29T00:04:09;6.18;;;4.47;;
52888;SDS011;41413;52.770;6.892;2022-12-29T00:06:41;4.72;;;4.32;;
52888;SDS011;41413;52.770;6.892;2022-12-29T00:09:09;4.80;;;3.85;;
52888;SDS011;41413;52.770;6.892;2022-12-29T00:11:38;3.92;;;3.63;;
52888;SDS011;41413;52.770;6.892;2022-12-29T00:14:05;4.18;;;3.78;;
52888;SDS011;41413;52.770;6.892;2022-12-29T00:16:53;3.83;;;3.47;;
52888;SDS011;41413;52.770;6.892;2022-12-29T00:19:19;4.13;;;3.83;;
52888;SDS011;41413;52.770;6.892;2022-12-29T00:22:05;4.53;;;4.17;;
52888;SDS011;41413;52.770;6.892;2022-12-29T00:27:36;4.20;;;3.72;;
52888;SDS011;41413;52.770;6.892;2022-12-29T00:30:28;4.30;;;4.00;;
52888;SDS011;41413;52.770;6.892;2022-12-29T00:33:15;5.07;;;4.22;;
52888;SDS011;41413;52.770;6.892;2022-12-29T00:36:06;5.47;;;3.97;;
52888;SDS011;41413;52.770;6.892;2022-12-29T00:38:40;4.32;;;3.92;;
52888;SDS011;41413;52.770;6.892;2022-12-29T00:41:29;4.80;;;4.40;;
52888;SDS011;41413;52.770;6.892;2022-12-29T00:44:14;5.53;;;4.10;;
52888;SDS011;41413;52.770;6.892;2022-12-29T00:46:41;3.55;;;3.33;;
52888;SDS011;41413;52.770;6.892;2022-12-29T00:49:10;4.35;;;3.95;;
52888;SDS011;41413;52.770;6.892;2022-12-29T00:52:03;3.65;;;3.33;;
52888;SDS011;41413;52.770;6.892;2022-12-29T00:54:36;3.85;;;3.55;;
52888;SDS011;41413;52.770;6.892;2022-12-29T00:57:04;3.53;;;3.22;;
52888;SDS011;41413;52.770;6.892;2022-12-29T00:59:34;3.70;;;3.33;;
52888;SDS011;41413;52.770;6.892;2022-12-29T01:02:01;4.38;;;3.97;;
52888;SDS011;41413;52.770;6.892;2022-12-29T01:04:28;3.47;;;3.25;;
52888;SDS011;41413;52.770;6.892;2022-12-29T01:06:55;3.78;;;2.88;;
52888;SDS011;41413;52.770;6.892;2022-12-29T01:09:22;4.35;;;3.35;;
52888;SDS011;41413;52.770;6.892;2022-12-29T01:12:07;3.40;;;3.08;;
52888;SDS011;41413;52.770;6.892;2022-12-29T01:14:35;3.70;;;3.25;;
52888;SDS011;41413;52.770;6.892;2022-12-29T01:17:03;3.28;;;3.08;;
52888;SDS011;41413;52.770;6.892;2022-12-29T01:19:30;3.03;;;2.83;;
52888;SDS011;41413;52.770;6.892;2022-12-29T01:21:57;3.47;;;3.17;;
52888;SDS011;41413;52.770;6.892;2022-12-29T01:24:23;3.40;;;3.10;;
52888;SDS011;41413;52.770;6.892;2022-12-29T01:26:52;3.95;;;3.72;;
52888;SDS011;41413;52.770;6.892;2022-12-29T01:29:20;3.03;;;2.78;;
52888;SDS011;41413;52.770;6.892;2022-12-29T01:31:47;3.15;;;2.95;;
52888;SDS011;41413;52.770;6.892;2022-12-29T01:34:16;4.60;;;3.53;;
52888;SDS011;41413;52.770;6.892;2022-12-29T01:36:43;3.30;;;3.00;;
52888;SDS011;41413;52.770;6.892;2022-12-29T01:39:10;5.65;;;3.05;;
52888;SDS011;41413;52.770;6.892;2022-12-29T01:41:37;4.03;;;3.08;;
52888;SDS011;41413;52.770;6.892;2022-12-29T01:44:39;2.85;;;2.65;;
52888;SDS011;41413;52.770;6.892;2022-12-29T01:47:09;3.95;;;3.17;;
52888;SDS011;41413;52.770;6.892;2022-12-29T01:49:36;3.10;;;2.80;;
52888;SDS011;41413;52.770;6.892;2022-12-29T01:52:04;3.13;;;2.83;;
52888;SDS011;41413;52.770;6.892;2022-12-29T01:54:36;3.85;;;2.47;;
52888;SDS011;41413;52.770;6.892;2022-12-29T01:57:10;5.07;;;3.67;;
52888;SDS011;41413;52.770;6.892;2022-12-29T01:59:42;3.55;;;3.20;;
52888;SDS011;41413;52.770;6.892;2022-12-29T02:02:13;2.65;;;2.45;;
52888;SDS011;41413;52.770;6.892;2022-12-29T02:04:40;3.70;;;2.97;;
52888;SDS011;41413;52.770;6.892;2022-12-29T02:07:14;3.25;;;2.35;;
52888;SDS011;41413;52.770;6.892;2022-12-29T02:09:46;4.30;;;2.42;;
52888;SDS011;41413;52.770;6.892;2022-12-29T02:12:14;3.03;;;2.83;;
52888;SDS011;41413;52.770;6.892;2022-12-29T02:14:43;2.92;;;2.60;;
52888;SDS011;41413;52.770;6.892;2022-12-29T02:17:16;2.60;;;2.40;;
52888;SDS011;41413;52.770;6.892;2022-12-29T02:27:53;2.67;;;2.45;;
52888;SDS011;41413;52.770;6.892;2022-12-29T02:33:10;4.07;;;2.33;;
52888;SDS011;41413;52.770;6.892;2022-12-29T02:52:22;2.83;;;2.10;;
52888;SDS011;41413;52.770;6.892;2022-12-29T02:54:54;2.58;;;2.30;;
52888;SDS011;41413;52.770;6.892;2022-12-29T02:59:50;5.20;;;3.05;;
52888;SDS011;41413;52.770;6.892;2022-12-29T03:10:58;2.53;;;2.33;;
52888;SDS011;41413;52.770;6.892;2022-12-29T03:13:53;4.25;;;3.03;;
52888;SDS011;41413;52.770;6.892;2022-12-29T03:16:45;2.00;;;1.67;;
52888;SDS011;41413;52.770;6.892;2022-12-29T03:19:15;3.25;;;1.92;;
52888;SDS011;41413;52.770;6.892;2022-12-29T03:21:55;2.63;;;2.42;;
52888;SDS011;41413;52.770;6.892;2022-12-29T03:24:44;2.50;;;2.35;;
52888;SDS011;41413;52.770;6.892;2022-12-29T03:27:17;3.42;;;2.35;;
52888;SDS011;41413;52.770;6.892;2022-12-29T03:29:50;2.47;;;2.22;;
52888;SDS011;41413;52.770;6.892;2022-12-29T03:32:25;2.10;;;2.00;;
52888;SDS011;41413;52.770;6.892;2022-12-29T03:35:14;2.65;;;2.13;;
52888;SDS011;41413;52.770;6.892;2022-12-29T03:37:55;3.08;;;2.10;;
52888;SDS011;41413;52.770;6.892;2022-12-29T03:40:26;2.55;;;2.17;;
52888;SDS011;41413;52.770;6.892;2022-12-29T03:42:54;2.47;;;2.28;;
52888;SDS011;41413;52.770;6.892;2022-12-29T03:45:22;2.47;;;2.28;;
52888;SDS011;41413;52.770;6.892;2022-12-29T03:47:48;3.60;;;2.42;;
52888;SDS011;41413;52.770;6.892;2022-12-29T03:50:16;2.53;;;2.05;;
52888;SDS011;41413;52.770;6.892;2022-12-29T03:52:43;2.45;;;2.22;;
52888;SDS011;41413;52.770;6.892;2022-12-29T03:55:10;3.67;;;2.03;;
52888;SDS011;41413;52.770;6.892;2022-12-29T03:57:39;3.22;;;1.92;;
52888;SDS011;41413;52.770;6.892;2022-12-29T04:00:06;4.03;;;1.90;;
52888;SDS011;41413;52.770;6.892;2022-12-29T04:02:33;2.20;;;1.92;;
52888;SDS011;41413;52.770;6.892;2022-12-29T04:05:00;4.53;;;1.67;;
52888;SDS011;41413;52.770;6.892;2022-12-29T04:07:27;3.35;;;1.85;;
52888;SDS011;41413;52.770;6.892;2022-12-29T04:09:53;3.28;;;1.98;;
52888;SDS011;41413;52.770;6.892;2022-12-29T04:12:20;8.65;;;2.13;;
52888;SDS011;41413;52.770;6.892;2022-12-29T04:14:47;2.25;;;1.40;;
52888;SDS011;41413;52.770;6.892;2022-12-29T04:17:13;3.28;;;1.98;;
52888;SDS011;41413;52.770;6.892;2022-12-29T04:19:40;2.17;;;1.80;;
52888;SDS011;41413;52.770;6.892;2022-12-29T04:22:07;3.22;;;1.48;;
52888;SDS011;41413;52.770;6.892;2022-12-29T04:24:34;1.88;;;1.67;;
52888;SDS011;41413;52.770;6.892;2022-12-29T04:27:01;2.58;;;1.70;;
52888;SDS011;41413;52.770;6.892;2022-12-29T04:29:27;1.85;;;1.65;;
52888;SDS011;41413;52.770;6.892;2022-12-29T04:31:54;3.17;;;1.13;;
52888;SDS011;41413;52.770;6.892;2022-12-29T04:34:21;2.13;;;1.20;;
52888;SDS011;41413;52.770;6.892;2022-12-29T04:36:48;3.75;;;1.40;;
52888;SDS011;41413;52.770;6.892;2022-12-29T04:39:14;2.35;;;1.30;;
52888;SDS011;41413;52.770;6.892;2022-12-29T04:41:41;3.20;;;1.60;;
52888;SDS011;41413;52.770;6.892;2022-12-29T04:44:08;4.53;;;1.77;;
52888;SDS011;41413;52.770;6.892;2022-12-29T04:46:34;2.33;;;1.08;;
52888;SDS011;41413;52.770;6.892;2022-12-29T04:49:01;4.80;;;1.33;;
52888;SDS011;41413;52.770;6.892;2022-12-29T04:51:34;1.92;;;1.70;;
52888;SDS011;41413;52.770;6.892;2022-12-29T04:54:01;2.55;;;1.20;;
52888;SDS011;41413;52.770;6.892;2022-12-29T04:56:28;1.85;;;1.42;;
52888;SDS011;41413;52.770;6.892;2022-12-29T04:58:55;2.17;;;1.33;;
52888;SDS011;41413;52.770;6.892;2022-12-29T05:01:21;2.25;;;1.35;;
52888;SDS011;41413;52.770;6.892;2022-12-29T05:03:49;2.22;;;1.65;;
52888;SDS011;41413;52.770;6.892;2022-12-29T05:06:17;1.55;;;1.42;;
52888;SDS011;41413;52.770;6.892;2022-12-29T05:08:44;2.15;;;1.40;;
52888;SDS011;41413;52.770;6.892;2022-12-29T05:11:11;2.40;;;1.30;;
52888;SDS011;41413;52.770;6.892;2022-12-29T05:13:37;2.47;;;1.48;;
52888;SDS011;41413;52.770;6.892;2022-12-29T05:16:04;4.28;;;1.70;;
52888;SDS011;41413;52.770;6.892;2022-12-29T05:18:31;4.13;;;1.60;;
52888;SDS011;41413;52.770;6.892;2022-12-29T05:20:58;2.80;;;2.20;;
52888;SDS011;41413;52.770;6.892;2022-12-29T05:23:25;2.85;;;2.10;;
52888;SDS011;41413;52.770;6.892;2022-12-29T05:25:52;1.65;;;1.55;;
52888;SDS011;41413;52.770;6.892;2022-12-29T05:28:18;4.03;;;2.00;;
52888;SDS011;41413;52.770;6.892;2022-12-29T05:30:47;2.97;;;2.00;;
52888;SDS011;41413;52.770;6.892;2022-12-29T05:33:16;3.45;;;1.67;;
52888;SDS011;41413;52.770;6.892;2022-12-29T05:35:44;2.85;;;1.52;;
52888;SDS011;41413;52.770;6.892;2022-12-29T05:38:10;2.40;;;1.55;;
52888;SDS011;41413;52.770;6.892;2022-12-29T05:40:37;2.17;;;1.67;;
52888;SDS011;41413;52.770;6.892;2022-12-29T05:43:04;2.45;;;1.30;;
52888;SDS011;41413;52.770;6.892;2022-12-29T05:45:30;2.28;;;2.00;;
52888;SDS011;41413;52.770;6.892;2022-12-29T05:47:57;5.28;;;1.80;;
52888;SDS011;41413;52.770;6.892;2022-12-29T05:50:24;4.68;;;1.90;;
52888;SDS011;41413;52.770;6.892;2022-12-29T05:52:50;5.15;;;2.15;;
52888;SDS011;41413;52.770;6.892;2022-12-29T05:55:17;7.60;;;1.73;;
52888;SDS011;41413;52.770;6.892;2022-12-29T05:57:44;7.88;;;1.95;;
52888;SDS011;41413;52.770;6.892;2022-12-29T06:00:11;2.08;;;1.88;;
52888;SDS011;41413;52.770;6.892;2022-12-29T06:02:38;3.33;;;1.75;;
52888;SDS011;41413;52.770;6.892;2022-12-29T06:05:05;4.05;;;1.98;;
52888;SDS011;41413;52.770;6.892;2022-12-29T06:07:31;3.53;;;2.03;;
52888;SDS011;41413;52.770;6.892;2022-12-29T06:09:58;6.78;;;2.30;;
52888;SDS011;41413;52.770;6.892;2022-12-29T06:12:25;1.92;;;1.60;;
52888;SDS011;41413;52.770;6.892;2022-12-29T06:14:52;3.08;;;1.70;;
52888;SDS011;41413;52.770;6.892;2022-12-29T06:17:19;3.30;;;1.80;;
52888;SDS011;41413;52.770;6.892;2022-12-29T06:19:45;6.35;;;1.95;;
52888;SDS011;41413;52.770;6.892;2022-12-29T06:22:12;5.03;;;2.00;;
52888;SDS011;41413;52.770;6.892;2022-12-29T06:24:39;5.65;;;2.40;;
52888;SDS011;41413;52.770;6.892;2022-12-29T06:27:06;6.53;;;2.33;;
52888;SDS011;41413;52.770;6.892;2022-12-29T06:29:33;7.18;;;2.58;;
52888;SDS011;41413;52.770;6.892;2022-12-29T06:32:01;4.93;;;2.40;;
52888;SDS011;41413;52.770;6.892;2022-12-29T06:34:27;4.90;;;2.38;;
52888;SDS011;41413;52.770;6.892;2022-12-29T06:36:54;3.70;;;2.28;;
52888;SDS011;41413;52.770;6.892;2022-12-29T06:39:21;7.78;;;2.15;;
52888;SDS011;41413;52.770;6.892;2022-12-29T06:41:48;3.00;;;1.50;;
52888;SDS011;41413;52.770;6.892;2022-12-29T06:44:17;7.88;;;2.08;;
52888;SDS011;41413;52.770;6.892;2022-12-29T06:46:44;3.30;;;2.03;;
52888;SDS011;41413;52.770;6.892;2022-12-29T06:49:10;8.23;;;2.65;;
52888;SDS011;41413;52.770;6.892;2022-12-29T06:51:37;9.20;;;2.78;;
52888;SDS011;41413;52.770;6.892;2022-12-29T06:54:04;4.47;;;2.80;;
52888;SDS011;41413;52.770;6.892;2022-12-29T06:56:31;4.88;;;2.30;;
52888;SDS011;41413;52.770;6.892;2022-12-29T06:58:58;6.45;;;3.10;;
52888;SDS011;41413;52.770;6.892;2022-12-29T07:01:27;6.93;;;3.17;;
52888;SDS011;41413;52.770;6.892;2022-12-29T07:03:54;5.57;;;2.60;;
52888;SDS011;41413;52.770;6.892;2022-12-29T07:06:20;14.38;;;3.45;;
52888;SDS011;41413;52.770;6.892;2022-12-29T07:08:47;10.25;;;4.32;;
52888;SDS011;41413;52.770;6.892;2022-12-29T07:11:14;8.82;;;3.38;;
52888;SDS011;41413;52.770;6.892;2022-12-29T07:13:42;7.38;;;2.63;;
52888;SDS011;41413;52.770;6.892;2022-12-29T07:16:09;17.58;;;3.30;;
52888;SDS011;41413;52.770;6.892;2022-12-29T07:18:36;7.53;;;3.42;;
52888;SDS011;41413;52.770;6.892;2022-12-29T07:21:03;10.98;;;3.63;;
52888;SDS011;41413;52.770;6.892;2022-12-29T07:23:30;8.73;;;3.75;;
52888;SDS011;41413;52.770;6.892;2022-12-29T07:26:00;13.75;;;3.80;;
52888;SDS011;41413;52.770;6.892;2022-12-29T07:28:28;7.55;;;3.35;;
52888;SDS011;41413;52.770;6.892;2022-12-29T07:30:55;10.20;;;2.78;;
52888;SDS011;41413;52.770;6.892;2022-12-29T07:33:22;10.35;;;4.18;;
52888;SDS011;41413;52.770;6.892;2022-12-29T07:35:49;11.82;;;4.57;;
52888;SDS011;41413;52.770;6.892;2022-12-29T07:38:15;13.75;;;4.75;;
52888;SDS011;41413;52.770;6.892;2022-12-29T07:40:42;11.40;;;3.15;;
52888;SDS011;41413;52.770;6.892;2022-12-29T07:43:09;12.90;;;3.83;;
52888;SDS011;41413;52.770;6.892;2022-12-29T07:45:36;6.53;;;3.40;;
52888;SDS011;41413;52.770;6.892;2022-12-29T07:48:03;6.38;;;3.58;;
52888;SDS011;41413;52.770;6.892;2022-12-29T07:50:34;9.57;;;3.03;;
52888;SDS011;41413;52.770;6.892;2022-12-29T07:53:01;6.05;;;2.28;;
52888;SDS011;41413;52.770;6.892;2022-12-29T07:55:28;9.80;;;3.20;;
52888;SDS011;41413;52.770;6.892;2022-12-29T07:57:56;9.32;;;2.88;;
52888;SDS011;41413;52.770;6.892;2022-12-29T08:00:23;7.60;;;2.63;;
52888;SDS011;41413;52.770;6.892;2022-12-29T08:02:50;7.30;;;3.33;;
52888;SDS011;41413;52.770;6.892;2022-12-29T08:05:16;7.82;;;2.80;;
52888;SDS011;41413;52.770;6.892;2022-12-29T08:07:43;9.65;;;2.85;;
52888;SDS011;41413;52.770;6.892;2022-12-29T08:10:11;3.97;;;2.60;;
52888;SDS011;41413;52.770;6.892;2022-12-29T08:12:38;7.05;;;3.13;;
52888;SDS011;41413;52.770;6.892;2022-12-29T08:15:06;6.72;;;2.70;;
52888;SDS011;41413;52.770;6.892;2022-12-29T08:17:34;4.72;;;2.50;;
52888;SDS011;41413;52.770;6.892;2022-12-29T08:20:01;12.60;;;4.10;;
52888;SDS011;41413;52.770;6.892;2022-12-29T08:22:27;5.88;;;2.78;;
52888;SDS011;41413;52.770;6.892;2022-12-29T08:24:54;8.15;;;2.83;;
52888;SDS011;41413;52.770;6.892;2022-12-29T08:27:21;5.75;;;2.28;;
52888;SDS011;41413;52.770;6.892;2022-12-29T08:29:48;5.10;;;2.97;;
52888;SDS011;41413;52.770;6.892;2022-12-29T08:32:15;9.85;;;2.85;;
52888;SDS011;41413;52.770;6.892;2022-12-29T08:34:42;5.70;;;2.60;;
52888;SDS011;41413;52.770;6.892;2022-12-29T08:37:08;7.97;;;3.28;;
52888;SDS011;41413;52.770;6.892;2022-12-29T08:39:35;13.10;;;3.72;;
52888;SDS011;41413;52.770;6.892;2022-12-29T08:42:02;11.95;;;3.08;;
52888;SDS011;41413;52.770;6.892;2022-12-29T08:44:28;9.93;;;3.10;;
52888;SDS011;41413;52.770;6.892;2022-12-29T08:46:55;5.45;;;2.80;;
52888;SDS011;41413;52.770;6.892;2022-12-29T08:49:22;14.75;;;3.58;;
52888;SDS011;41413;52.770;6.892;2022-12-29T08:51:49;11.40;;;3.53;;
52888;SDS011;41413;52.770;6.892;2022-12-29T08:54:15;9.85;;;3.15;;
52888;SDS011;41413;52.770;6.892;2022-12-29T08:56:42;5.57;;;2.22;;
52888;SDS011;41413;52.770;6.892;2022-12-29T08:59:08;9.00;;;3.15;;
52888;SDS011;41413;52.770;6.892;2022-12-29T09:01:35;5.65;;;2.42;;
52888;SDS011;41413;52.770;6.892;2022-12-29T09:04:06;4.43;;;2.45;;
52888;SDS011;41413;52.770;6.892;2022-12-29T09:06:43;8.27;;;2.25;;
52888;SDS011;41413;52.770;6.892;2022-12-29T09:09:11;3.35;;;2.33;;
52888;SDS011;41413;52.770;6.892;2022-12-29T09:11:38;6.38;;;2.60;;
52888;SDS011;41413;52.770;6.892;2022-12-29T09:14:04;8.38;;;2.42;;
52888;SDS011;41413;52.770;6.892;2022-12-29T09:16:31;9.38;;;3.22;;
52888;SDS011;41413;52.770;6.892;2022-12-29T09:18:59;7.10;;;2.97;;
52888;SDS011;41413;52.770;6.892;2022-12-29T09:21:25;5.25;;;1.80;;
52888;SDS011;41413;52.770;6.892;2022-12-29T09:23:52;9.75;;;2.80;;
52888;SDS011;41413;52.770;6.892;2022-12-29T09:26:19;6.72;;;2.20;;
52888;SDS011;41413;52.770;6.892;2022-12-29T09:28:45;8.82;;;2.70;;
52888;SDS011;41413;52.770;6.892;2022-12-29T09:31:13;7.75;;;3.17;;
52888;SDS011;41413;52.770;6.892;2022-12-29T09:33:40;9.55;;;3.08;;
52888;SDS011;41413;52.770;6.892;2022-12-29T09:36:08;10.00;;;3.97;;
52888;SDS011;41413;52.770;6.892;2022-12-29T09:38:34;5.05;;;3.10;;
52888;SDS011;41413;52.770;6.892;2022-12-29T09:41:05;9.52;;;3.25;;
52888;SDS011;41413;52.770;6.892;2022-12-29T09:44:00;8.63;;;3.45;;
52888;SDS011;41413;52.770;6.892;2022-12-29T09:47:07;10.77;;;3.47;;
52888;SDS011;41413;52.770;6.892;2022-12-29T09:49:38;5.72;;;3.10;;
52888;SDS011;41413;52.770;6.892;2022-12-29T09:52:24;7.47;;;2.70;;
52888;SDS011;41413;52.770;6.892;2022-12-29T09:57:41;8.52;;;3.13;;
52888;SDS011;41413;52.770;6.892;2022-12-29T10:00:38;7.20;;;2.65;;
52888;SDS011;41413;52.770;6.892;2022-12-29T10:03:21;7.60;;;3.33;;
52888;SDS011;41413;52.770;6.892;2022-12-29T10:06:06;5.00;;;2.55;;
52888;SDS011;41413;52.770;6.892;2022-12-29T10:08:52;7.38;;;3.22;;
52888;SDS011;41413;52.770;6.892;2022-12-29T10:20:17;9.60;;;3.83;;
52888;SDS011;41413;52.770;6.892;2022-12-29T10:23:16;9.45;;;2.95;;
52888;SDS011;41413;52.770;6.892;2022-12-29T10:25:52;13.65;;;4.13;;
52888;SDS011;41413;52.770;6.892;2022-12-29T10:28:28;9.95;;;3.42;;
52888;SDS011;41413;52.770;6.892;2022-12-29T10:31:11;8.15;;;3.53;;
52888;SDS011;41413;52.770;6.892;2022-12-29T10:33:49;8.63;;;3.53;;
52888;SDS011;41413;52.770;6.892;2022-12-29T10:36:20;10.35;;;3.30;;
52888;SDS011;41413;52.770;6.892;2022-12-29T10:41:39;7.32;;;3.47;;
52888;SDS011;41413;52.770;6.892;2022-12-29T10:44:11;12.05;;;3.53;;
52888;SDS011;41413;52.770;6.892;2022-12-29T10:46:41;8.80;;;3.03;;
52888;SDS011;41413;52.770;6.892;2022-12-29T10:49:17;8.65;;;3.20;;
52888;SDS011;41413;52.770;6.892;2022-12-29T10:51:47;8.18;;;3.88;;
52888;SDS011;41413;52.770;6.892;2022-12-29T10:54:19;10.23;;;3.60;;
52888;SDS011;41413;52.770;6.892;2022-12-29T10:56:56;11.10;;;3.78;;
52888;SDS011;41413;52.770;6.892;2022-12-29T10:59:29;12.15;;;3.80;;
52888;SDS011;41413;52.770;6.892;2022-12-29T11:07:31;14.55;;;4.20;;
52888;SDS011;41413;52.770;6.892;2022-12-29T11:10:21;11.73;;;3.85;;
52888;SDS011;41413;52.770;6.892;2022-12-29T11:12:58;10.65;;;3.70;;
52888;SDS011;41413;52.770;6.892;2022-12-29T11:15:26;7.97;;;3.53;;
52888;SDS011;41413;52.770;6.892;2022-12-29T11:18:03;11.20;;;3.78;;
52888;SDS011;41413;52.770;6.892;2022-12-29T11:20:32;13.77;;;3.50;;
52888;SDS011;41413;52.770;6.892;2022-12-29T11:23:02;4.82;;;2.83;;
52888;SDS011;41413;52.770;6.892;2022-12-29T11:25:30;6.22;;;4.00;;
52888;SDS011;41413;52.770;6.892;2022-12-29T11:28:02;9.95;;;3.75;;
52888;SDS011;41413;52.770;6.892;2022-12-29T11:30:40;11.35;;;3.85;;
52888;SDS011;41413;52.770;6.892;2022-12-29T11:33:07;6.05;;;3.28;;
52888;SDS011;41413;52.770;6.892;2022-12-29T11:35:36;8.80;;;3.40;;
52888;SDS011;41413;52.770;6.892;2022-12-29T11:38:20;9.32;;;6.00;;
52888;SDS011;41413;52.770;6.892;2022-12-29T11:40:51;10.48;;;3.63;;
52888;SDS011;41413;52.770;6.892;2022-12-29T11:43:21;5.88;;;3.85;;
52888;SDS011;41413;52.770;6.892;2022-12-29T11:45:56;10.85;;;3.40;;
52888;SDS011;41413;52.770;6.892;2022-12-29T11:48:23;7.00;;;3.75;;
52888;SDS011;41413;52.770;6.892;2022-12-29T11:50:56;7.20;;;3.05;;
52888;SDS011;41413;52.770;6.892;2022-12-29T11:56:05;13.45;;;4.38;;
52888;SDS011;41413;52.770;6.892;2022-12-29T11:58:35;12.48;;;4.78;;
52888;SDS011;41413;52.770;6.892;2022-12-29T12:03:32;12.18;;;4.50;;
52888;SDS011;41413;52.770;6.892;2022-12-29T12:06:03;10.77;;;3.58;;
52888;SDS011;41413;52.770;6.892;2022-12-29T12:08:39;10.05;;;3.88;;
52888;SDS011;41413;52.770;6.892;2022-12-29T12:11:15;7.75;;;3.55;;
52888;SDS011;41413;52.770;6.892;2022-12-29T12:14:12;8.20;;;3.90;;
52888;SDS011;41413;52.770;6.892;2022-12-29T12:16:50;7.97;;;4.18;;
52888;SDS011;41413;52.770;6.892;2022-12-29T12:19:31;5.28;;;3.45;;
52888;SDS011;41413;52.770;6.892;2022-12-29T12:22:03;5.47;;;4.35;;
52888;SDS011;41413;52.770;6.892;2022-12-29T12:25:01;10.63;;;4.38;;
52888;SDS011;41413;52.770;6.892;2022-12-29T12:28:09;10.85;;;3.88;;
52888;SDS011;41413;52.770;6.892;2022-12-29T12:30:44;10.38;;;5.38;;
52888;SDS011;41413;52.770;6.892;2022-12-29T12:33:36;8.77;;;4.35;;
52888;SDS011;41413;52.770;6.892;2022-12-29T12:38:55;6.32;;;4.05;;
52888;SDS011;41413;52.770;6.892;2022-12-29T12:41:44;10.43;;;5.03;;
52888;SDS011;41413;52.770;6.892;2022-12-29T12:47:21;14.13;;;5.10;;
52888;SDS011;41413;52.770;6.892;2022-12-29T12:50:27;10.45;;;5.45;;
52888;SDS011;41413;52.770;6.892;2022-12-29T12:53:24;13.82;;;5.07;;
52888;SDS011;41413;52.770;6.892;2022-12-29T12:56:18;9.98;;;4.70;;
52888;SDS011;41413;52.770;6.892;2022-12-29T13:01:58;17.67;;;5.18;;
52888;SDS011;41413;52.770;6.892;2022-12-29T13:15:40;21.30;;;6.18;;
52888;SDS011;41413;52.770;6.892;2022-12-29T13:18:48;15.00;;;7.15;;
52888;SDS011;41413;52.770;6.892;2022-12-29T13:27:12;13.43;;;5.07;;
52888;SDS011;41413;52.770;6.892;2022-12-29T13:30:10;17.65;;;6.22;;
52888;SDS011;41413;52.770;6.892;2022-12-29T13:33:12;10.20;;;5.15;;
52888;SDS011;41413;52.770;6.892;2022-12-29T13:38:25;13.02;;;5.85;;
52888;SDS011;41413;52.770;6.892;2022-12-29T13:41:04;8.50;;;3.42;;
52888;SDS011;41413;52.770;6.892;2022-12-29T13:43:35;9.00;;;3.38;;
52888;SDS011;41413;52.770;6.892;2022-12-29T13:46:10;6.75;;;4.28;;
52888;SDS011;41413;52.770;6.892;2022-12-29T13:51:08;14.73;;;4.68;;
52888;SDS011;41413;52.770;6.892;2022-12-29T13:56:26;13.70;;;6.05;;
52888;SDS011;41413;52.770;6.892;2022-12-29T13:59:16;12.18;;;5.22;;
52888;SDS011;41413;52.770;6.892;2022-12-29T14:01:50;13.02;;;5.70;;
52888;SDS011;41413;52.770;6.892;2022-12-29T14:04:27;15.20;;;5.85;;
52888;SDS011;41413;52.770;6.892;2022-12-29T14:07:00;13.95;;;6.28;;
52888;SDS011;41413;52.770;6.892;2022-12-29T14:09:46;17.40;;;9.90;;
52888;SDS011;41413;52.770;6.892;2022-12-29T14:12:19;15.68;;;6.78;;
52888;SDS011;41413;52.770;6.892;2022-12-29T14:17:35;16.42;;;8.43;;
52888;SDS011;41413;52.770;6.892;2022-12-29T14:20:04;15.50;;;7.60;;
52888;SDS011;41413;52.770;6.892;2022-12-29T14:22:54;17.45;;;7.15;;
52888;SDS011;41413;52.770;6.892;2022-12-29T14:25:51;15.15;;;7.55;;
52888;SDS011;41413;52.770;6.892;2022-12-29T14:28:23;22.70;;;12.27;;
52888;SDS011;41413;52.770;6.892;2022-12-29T14:31:04;20.90;;;10.50;;
52888;SDS011;41413;52.770;6.892;2022-12-29T14:39:30;13.95;;;7.25;;
52888;SDS011;41413;52.770;6.892;2022-12-29T14:42:06;17.83;;;11.27;;
52888;SDS011;41413;52.770;6.892;2022-12-29T14:44:49;20.75;;;8.23;;
52888;SDS011;41413;52.770;6.892;2022-12-29T14:47:37;21.75;;;12.90;;
52888;SDS011;41413;52.770;6.892;2022-12-29T14:50:21;14.40;;;5.93;;
52888;SDS011;41413;52.770;6.892;2022-12-29T14:58:20;17.05;;;6.53;;
52888;SDS011;41413;52.770;6.892;2022-12-29T15:00:55;16.83;;;6.88;;
52888;SDS011;41413;52.770;6.892;2022-12-29T15:03:32;18.05;;;6.35;;
52888;SDS011;41413;52.770;6.892;2022-12-29T15:06:15;13.30;;;5.25;;
52888;SDS011;41413;52.770;6.892;2022-12-29T15:08:55;17.23;;;5.88;;
52888;SDS011;41413;52.770;6.892;2022-12-29T15:11:47;17.58;;;6.40;;
52888;SDS011;41413;52.770;6.892;2022-12-29T15:17:20;15.85;;;6.30;;
52888;SDS011;41413;52.770;6.892;2022-12-29T15:19:59;26.42;;;5.72;;
52888;SDS011;41413;52.770;6.892;2022-12-29T15:22:27;25.55;;;10.48;;
52888;SDS011;41413;52.770;6.892;2022-12-29T15:24:56;18.05;;;6.57;;
52888;SDS011;41413;52.770;6.892;2022-12-29T15:27:25;15.18;;;5.70;;
52888;SDS011;41413;52.770;6.892;2022-12-29T15:29:59;21.02;;;7.22;;
52888;SDS011;41413;52.770;6.892;2022-12-29T15:32:39;15.63;;;7.55;;
52888;SDS011;41413;52.770;6.892;2022-12-29T15:35:25;14.25;;;6.22;;
52888;SDS011;41413;52.770;6.892;2022-12-29T15:37:54;15.80;;;6.65;;
52888;SDS011;41413;52.770;6.892;2022-12-29T15:40:26;15.38;;;7.13;;
52888;SDS011;41413;52.770;6.892;2022-12-29T15:45:46;15.80;;;6.40;;
52888;SDS011;41413;52.770;6.892;2022-12-29T15:48:17;10.10;;;5.65;;
52888;SDS011;41413;52.770;6.892;2022-12-29T15:50:47;19.88;;;6.40;;
52888;SDS011;41413;52.770;6.892;2022-12-29T15:53:18;21.52;;;9.52;;
52888;SDS011;41413;52.770;6.892;2022-12-29T15:55:54;11.18;;;6.40;;
52888;SDS011;41413;52.770;6.892;2022-12-29T15:58:41;10.23;;;5.85;;
52888;SDS011;41413;52.770;6.892;2022-12-29T16:01:33;16.08;;;6.15;;
52888;SDS011;41413;52.770;6.892;2022-12-29T16:04:05;10.48;;;6.35;;
52888;SDS011;41413;52.770;6.892;2022-12-29T16:06:35;13.60;;;5.90;;
52888;SDS011;41413;52.770;6.892;2022-12-29T16:11:44;13.90;;;6.32;;
52888;SDS011;41413;52.770;6.892;2022-12-29T16:14:23;8.48;;;5.40;;
52888;SDS011;41413;52.770;6.892;2022-12-29T16:16:58;10.35;;;4.90;;
52888;SDS011;41413;52.770;6.892;2022-12-29T16:19:36;11.80;;;5.50;;
52888;SDS011;41413;52.770;6.892;2022-12-29T16:22:16;13.98;;;5.47;;
52888;SDS011;41413;52.770;6.892;2022-12-29T16:24:50;15.23;;;5.72;;
52888;SDS011;41413;52.770;6.892;2022-12-29T16:27:36;12.45;;;5.47;;
52888;SDS011;41413;52.770;6.892;2022-12-29T16:30:12;7.82;;;5.15;;
52888;SDS011;41413;52.770;6.892;2022-12-29T16:33:00;12.32;;;5.80;;
52888;SDS011;41413;52.770;6.892;2022-12-29T16:38:13;30.52;;;23.60;;
52888;SDS011;41413;52.770;6.892;2022-12-29T16:43:24;9.20;;;4.40;;
52888;SDS011;41413;52.770;6.892;2022-12-29T16:51:04;6.60;;;3.40;;
52888;SDS011;41413;52.770;6.892;2022-12-29T16:53:38;7.47;;;3.42;;
52888;SDS011;41413;52.770;6.892;2022-12-29T16:56:13;5.07;;;2.47;;
52888;SDS011;41413;52.770;6.892;2022-12-29T16:58:46;6.93;;;3.80;;
52888;SDS011;41413;52.770;6.892;2022-12-29T17:01:14;9.80;;;3.28;;
52888;SDS011;41413;52.770;6.892;2022-12-29T17:03:46;5.40;;;2.58;;
52888;SDS011;41413;52.770;6.892;2022-12-29T17:06:17;5.15;;;2.60;;
52888;SDS011;41413;52.770;6.892;2022-12-29T17:08:46;8.15;;;3.95;;
52888;SDS011;41413;52.770;6.892;2022-12-29T17:11:18;5.80;;;3.10;;
52888;SDS011;41413;52.770;6.892;2022-12-29T17:14:24;7.00;;;3.13;;
52888;SDS011;41413;52.770;6.892;2022-12-29T17:17:03;10.63;;;3.97;;
52888;SDS011;41413;52.770;6.892;2022-12-29T17:19:35;6.22;;;3.75;;
52888;SDS011;41413;52.770;6.892;2022-12-29T17:22:12;7.50;;;3.80;;
52888;SDS011;41413;52.770;6.892;2022-12-29T17:24:44;2.47;;;1.52;;
52888;SDS011;41413;52.770;6.892;2022-12-29T17:27:21;9.85;;;4.57;;
52888;SDS011;41413;52.770;6.892;2022-12-29T17:29:58;9.25;;;4.90;;